createdAt,value
2017-11-23T00:00:18.939Z,3.72
2017-11-23T00:01:18.920Z,3.64
2017-11-23T00:02:18.906Z,3.60
2017-11-23T00:03:18.886Z,3.64
2017-11-23T00:04:18.873Z,3.56
2017-11-23T00:05:18.857Z,3.62
2017-11-23T00:06:18.839Z,3.56
2017-11-23T00:07:18.822Z,3.59
2017-11-23T00:08:18.809Z,3.59
2017-11-23T00:09:18.792Z,3.60
2017-11-23T00:10:18.781Z,3.60
2017-11-23T00:11:18.755Z,3.57
2017-11-23T00:12:18.738Z,3.60
2017-11-23T00:13:18.731Z,3.68
2017-11-23T00:14:18.709Z,3.57
2017-11-23T00:15:18.692Z,3.59
2017-11-23T00:16:18.676Z,3.49
2017-11-23T00:17:18.665Z,3.54
2017-11-23T00:18:18.653Z,3.52
2017-11-23T00:19:18.634Z,3.57
2017-11-23T00:20:18.611Z,3.54
2017-11-23T00:21:18.599Z,3.59
2017-11-23T00:22:18.581Z,3.53
2017-11-23T00:23:18.564Z,3.46
2017-11-23T00:24:18.562Z,3.56
2017-11-23T00:25:18.534Z,3.42
2017-11-23T00:26:18.518Z,3.39
2017-11-23T00:27:18.500Z,3.42
2017-11-23T00:28:18.485Z,3.53
2017-11-23T00:29:18.469Z,3.71
2017-11-23T00:30:18.460Z,3.67
2017-11-23T00:31:18.447Z,3.57
2017-11-23T00:32:18.429Z,3.53
2017-11-23T00:33:18.404Z,3.56
2017-11-23T00:34:18.396Z,3.52
2017-11-23T00:35:18.386Z,3.57
2017-11-23T00:36:18.357Z,3.60
2017-11-23T00:37:18.346Z,3.57
2017-11-23T00:38:18.331Z,3.56
2017-11-23T00:39:18.313Z,3.59
2017-11-23T00:40:18.297Z,3.45
2017-11-23T00:41:18.275Z,3.41
2017-11-23T00:42:18.265Z,3.50
2017-11-23T00:43:18.252Z,3.52
2017-11-23T00:44:18.228Z,3.56
2017-11-23T00:45:18.224Z,3.54
2017-11-23T00:46:18.196Z,3.44
2017-11-23T00:47:18.180Z,3.39
2017-11-23T00:48:18.176Z,3.37
2017-11-23T00:49:18.148Z,3.26
2017-11-23T00:50:18.138Z,3.42
2017-11-23T00:51:18.113Z,3.39
2017-11-23T00:52:18.097Z,3.35
2017-11-23T00:53:18.087Z,3.35
2017-11-23T00:54:18.065Z,3.37
2017-11-23T00:55:18.058Z,3.42
2017-11-23T00:56:18.052Z,3.33
2017-11-23T00:57:18.017Z,3.33
2017-11-23T00:58:18.009Z,3.34
2017-11-23T00:59:17.986Z,3.33
2017-11-23T01:00:17.985Z,3.23
2017-11-23T01:01:17.961Z,3.22
2017-11-23T01:02:17.951Z,3.20
2017-11-23T01:03:17.924Z,3.23
2017-11-23T01:04:17.920Z,3.19
2017-11-23T01:05:17.894Z,3.30
2017-11-23T01:06:17.878Z,3.31
2017-11-23T01:07:17.855Z,3.17
2017-11-23T01:08:17.840Z,3.28
2017-11-23T01:09:17.823Z,3.20
2017-11-23T01:10:17.808Z,3.25
2017-11-23T01:11:17.791Z,3.22
2017-11-23T01:12:17.783Z,3.33
2017-11-23T01:13:17.766Z,3.23
2017-11-23T01:14:17.741Z,3.17
2017-11-23T01:15:17.730Z,3.25
2017-11-23T01:16:17.710Z,3.28
2017-11-23T01:17:17.712Z,3.16
2017-11-23T01:18:17.688Z,3.10
2017-11-23T01:19:17.662Z,3.10
2017-11-23T01:20:17.654Z,3.08
2017-11-23T01:21:17.636Z,3.07
2017-11-23T01:22:17.613Z,3.04
2017-11-23T01:23:17.607Z,3.02
2017-11-23T01:24:17.588Z,3.01
2017-11-23T01:25:17.562Z,3.01
2017-11-23T01:26:17.547Z,3.01
2017-11-23T01:27:17.535Z,2.92
2017-11-23T01:28:17.521Z,2.90
2017-11-23T01:29:17.496Z,2.99
2017-11-23T01:30:17.482Z,3.10
2017-11-23T01:31:17.466Z,3.10
2017-11-23T01:32:17.447Z,3.19
2017-11-23T01:33:17.430Z,3.25
2017-11-23T01:34:17.414Z,3.16
2017-11-23T01:35:17.412Z,3.13
2017-11-23T01:36:17.397Z,3.19
2017-11-23T01:37:17.374Z,3.16
2017-11-23T01:38:17.358Z,3.13
2017-11-23T01:39:17.331Z,3.07
2017-11-23T01:40:17.318Z,3.20
2017-11-23T01:41:17.309Z,3.08
2017-11-23T01:42:17.284Z,3.10
2017-11-23T01:43:17.267Z,3.05
2017-11-23T01:44:17.250Z,3.01
2017-11-23T01:45:17.233Z,3.04
2017-11-23T01:46:17.227Z,2.99
2017-11-23T01:47:17.200Z,2.99
2017-11-23T01:48:17.189Z,3.04
2017-11-23T01:49:17.169Z,2.95
2017-11-23T01:50:17.153Z,3.02
2017-11-23T01:51:17.135Z,3.02
2017-11-23T01:52:17.119Z,3.12
2017-11-23T01:53:17.104Z,3.08
2017-11-23T01:54:17.087Z,3.01
2017-11-23T01:55:17.079Z,3.10
2017-11-23T01:56:17.053Z,3.04
2017-11-23T01:57:17.039Z,3.01
2017-11-23T01:58:17.020Z,2.99
2017-11-23T01:59:17.013Z,2.97
2017-11-23T02:00:16.988Z,2.87
2017-11-23T02:01:16.985Z,3.01
2017-11-23T02:02:16.965Z,2.89
2017-11-23T02:03:16.941Z,2.92
2017-11-23T02:04:16.932Z,3.01
2017-11-23T02:05:16.905Z,2.95
2017-11-23T02:06:16.895Z,2.94
2017-11-23T02:07:16.870Z,2.90
2017-11-23T02:08:16.855Z,3.02
2017-11-23T02:09:16.838Z,3.15
2017-11-23T02:10:16.831Z,3.12
2017-11-23T02:11:16.813Z,3.22
2017-11-23T02:12:16.797Z,3.33
2017-11-23T02:13:16.773Z,3.22
2017-11-23T02:14:16.761Z,3.17
2017-11-23T02:15:16.749Z,3.16
2017-11-23T02:16:16.729Z,3.23
2017-11-23T02:17:16.710Z,3.25
2017-11-23T02:18:16.704Z,3.19
2017-11-23T02:19:16.674Z,3.31
2017-11-23T02:20:16.660Z,3.26
2017-11-23T02:21:16.650Z,3.19
2017-11-23T02:22:16.627Z,3.17
2017-11-23T02:23:16.605Z,3.15
2017-11-23T02:24:16.598Z,3.17
2017-11-23T02:25:16.574Z,3.12
2017-11-23T02:26:16.558Z,3.13
2017-11-23T02:27:16.540Z,3.07
2017-11-23T02:28:16.530Z,3.07
2017-11-23T02:29:16.514Z,2.97
2017-11-23T02:30:16.498Z,3.02
2017-11-23T02:31:16.490Z,3.13
2017-11-23T02:32:16.459Z,3.08
2017-11-23T02:33:16.444Z,3.25
2017-11-23T02:34:16.433Z,3.35
2017-11-23T02:35:16.408Z,3.30
2017-11-23T02:36:16.394Z,3.22
2017-11-23T02:37:16.379Z,3.22
2017-11-23T02:38:16.363Z,3.22
2017-11-23T02:39:16.350Z,3.13
2017-11-23T02:40:16.340Z,3.25
2017-11-23T02:41:16.318Z,3.10
2017-11-23T02:42:16.294Z,3.19
2017-11-23T02:43:16.275Z,3.22
2017-11-23T02:44:16.268Z,3.20
2017-11-23T02:45:16.243Z,3.19
2017-11-23T02:46:16.231Z,3.16
2017-11-23T02:47:16.209Z,3.26
2017-11-23T02:48:16.193Z,3.16
2017-11-23T02:49:16.177Z,3.17
2017-11-23T02:50:16.159Z,3.25
2017-11-23T02:51:16.151Z,3.35
2017-11-23T02:52:16.128Z,3.28
2017-11-23T02:53:16.115Z,3.25
2017-11-23T02:54:16.100Z,3.35
2017-11-23T02:55:16.082Z,3.37
2017-11-23T02:56:16.063Z,3.34
2017-11-23T02:57:16.045Z,3.45
2017-11-23T02:58:16.029Z,3.42
2017-11-23T02:59:16.016Z,3.45
2017-11-23T03:00:15.994Z,3.34
2017-11-23T03:01:15.986Z,3.39
2017-11-23T03:02:15.962Z,3.35
2017-11-23T03:03:15.951Z,3.20
2017-11-23T03:04:15.942Z,3.33
2017-11-23T03:05:15.920Z,3.28
2017-11-23T03:06:15.896Z,3.28
2017-11-23T03:07:15.882Z,3.25
2017-11-23T03:08:15.865Z,3.22
2017-11-23T03:09:15.845Z,3.30
2017-11-23T03:10:15.846Z,3.22
2017-11-23T03:11:15.811Z,3.26
2017-11-23T03:12:15.797Z,3.25
2017-11-23T03:13:15.787Z,3.25
2017-11-23T03:14:15.770Z,3.20
2017-11-23T03:15:15.759Z,3.25
2017-11-23T03:16:15.733Z,3.30
2017-11-23T03:17:15.713Z,3.25
2017-11-23T03:18:15.708Z,3.26
2017-11-23T03:19:15.690Z,3.23
2017-11-23T03:20:15.670Z,3.13
2017-11-23T03:21:15.656Z,3.33
2017-11-23T03:22:15.635Z,3.31
2017-11-23T03:23:15.619Z,3.41
2017-11-23T03:24:15.597Z,3.56
2017-11-23T03:25:15.579Z,3.60
2017-11-23T03:26:15.569Z,3.71
2017-11-23T03:27:15.544Z,3.90
2017-11-23T03:28:15.532Z,3.89
2017-11-23T03:29:15.521Z,3.99
2017-11-23T03:30:15.497Z,3.99
2017-11-23T03:31:15.488Z,4.11
2017-11-23T03:32:15.472Z,4.24
2017-11-23T03:33:15.445Z,4.39
2017-11-23T03:34:15.451Z,4.51
2017-11-23T03:35:15.426Z,4.61
2017-11-23T03:36:15.396Z,4.65
2017-11-23T03:37:15.389Z,4.69
2017-11-23T03:38:15.364Z,4.74
2017-11-23T03:39:15.352Z,4.80
2017-11-23T03:40:15.336Z,4.68
2017-11-23T03:41:15.313Z,4.71
2017-11-23T03:42:15.308Z,4.87
2017-11-23T03:43:15.289Z,4.77
2017-11-23T03:44:15.269Z,4.77
2017-11-23T03:45:15.248Z,4.87
2017-11-23T03:46:15.232Z,4.74
2017-11-23T03:47:15.220Z,4.68
2017-11-23T03:48:15.207Z,4.75
2017-11-23T03:49:15.198Z,4.75
2017-11-23T03:50:15.168Z,4.62
2017-11-23T03:51:15.158Z,4.56
2017-11-23T03:52:15.136Z,4.49
2017-11-23T03:53:15.121Z,4.57
2017-11-23T03:54:15.103Z,4.49
2017-11-23T03:55:15.087Z,4.56
2017-11-23T03:56:15.071Z,4.49
2017-11-23T03:57:15.063Z,4.47
2017-11-23T03:58:15.039Z,4.61
2017-11-23T03:59:15.029Z,4.53
2017-11-23T04:00:15.006Z,4.47
2017-11-23T04:01:14.998Z,4.43
2017-11-23T04:02:14.981Z,4.51
2017-11-23T04:03:14.958Z,4.34
2017-11-23T04:04:14.942Z,4.29
2017-11-23T04:05:14.926Z,4.35
2017-11-23T04:06:14.911Z,4.17
2017-11-23T04:07:14.899Z,4.16
2017-11-23T04:08:14.878Z,4.16
2017-11-23T04:09:14.867Z,4.10
2017-11-23T04:10:14.856Z,4.07
2017-11-23T04:11:14.830Z,4.02
2017-11-23T04:12:14.813Z,3.98
2017-11-23T04:13:14.799Z,3.86
2017-11-23T04:14:14.786Z,3.84
2017-11-23T04:15:14.767Z,3.70
2017-11-23T04:16:14.760Z,3.81
2017-11-23T04:17:14.754Z,3.74
2017-11-23T04:18:14.717Z,3.70
2017-11-23T04:19:14.707Z,3.77
2017-11-23T04:20:14.693Z,3.75
2017-11-23T04:21:14.676Z,3.70
2017-11-23T04:22:14.658Z,3.67
2017-11-23T04:23:14.640Z,3.62
2017-11-23T04:24:14.621Z,3.57
2017-11-23T04:25:14.608Z,3.59
2017-11-23T04:26:14.593Z,3.57
2017-11-23T04:27:14.573Z,3.63
2017-11-23T04:28:14.557Z,3.68
2017-11-23T04:29:14.547Z,3.63
2017-11-23T04:30:14.525Z,3.57
2017-11-23T04:31:14.517Z,3.54
2017-11-23T04:32:14.498Z,3.53
2017-11-23T04:33:14.478Z,3.49
2017-11-23T04:34:14.475Z,3.50
2017-11-23T04:35:14.450Z,3.49
2017-11-23T04:36:14.429Z,3.49
2017-11-23T04:37:14.427Z,3.44
2017-11-23T04:38:14.401Z,3.50
2017-11-23T04:39:14.389Z,3.60
2017-11-23T04:40:14.364Z,3.53
2017-11-23T04:41:14.356Z,3.57
2017-11-23T04:42:14.330Z,3.59
2017-11-23T04:43:14.329Z,3.63
2017-11-23T04:44:14.303Z,3.71
2017-11-23T04:45:14.282Z,3.78
2017-11-23T04:46:14.282Z,3.75
2017-11-23T04:47:14.250Z,3.67
2017-11-23T04:48:14.238Z,3.72
2017-11-23T04:49:14.217Z,3.75
2017-11-23T04:50:14.202Z,3.70
2017-11-23T04:51:14.183Z,3.72
2017-11-23T04:52:14.169Z,3.71
2017-11-23T04:53:14.165Z,3.64
2017-11-23T04:54:14.135Z,3.71
2017-11-23T04:55:14.120Z,3.77
2017-11-23T04:56:14.104Z,3.86
2017-11-23T04:57:14.094Z,3.80
2017-11-23T04:58:14.077Z,3.98
2017-11-23T04:59:14.054Z,4.08
2017-11-23T05:00:14.038Z,4.18
2017-11-23T05:01:14.028Z,4.13
2017-11-23T05:02:14.012Z,4.24
2017-11-23T05:03:14.005Z,4.29
2017-11-23T05:04:13.982Z,4.38
2017-11-23T05:05:13.965Z,4.39
2017-11-23T05:06:13.944Z,4.31
2017-11-23T05:07:13.946Z,4.34
2017-11-23T05:08:13.916Z,4.34
2017-11-23T05:09:13.898Z,4.35
2017-11-23T05:10:13.885Z,4.26
2017-11-23T05:11:13.861Z,4.28
2017-11-23T05:12:13.844Z,4.32
2017-11-23T05:13:13.831Z,4.32
2017-11-23T05:14:13.823Z,4.31
2017-11-23T05:15:13.798Z,4.42
2017-11-23T05:16:13.789Z,4.38
2017-11-23T05:17:13.774Z,4.34
2017-11-23T05:18:13.766Z,4.46
2017-11-23T05:19:13.750Z,4.50
2017-11-23T05:20:13.717Z,4.56
2017-11-23T05:21:13.704Z,4.69
2017-11-23T05:22:13.692Z,4.77
2017-11-23T05:23:13.677Z,4.83
2017-11-23T05:24:13.653Z,4.93
2017-11-23T05:25:13.650Z,5.08
2017-11-23T05:26:13.622Z,5.20
2017-11-23T05:27:13.606Z,5.20
2017-11-23T05:28:13.595Z,5.37
2017-11-23T05:29:13.572Z,5.37
2017-11-23T05:30:13.567Z,5.38
2017-11-23T05:31:13.553Z,5.42
2017-11-23T05:32:13.526Z,5.40
2017-11-23T05:33:13.519Z,5.38
2017-11-23T05:34:13.492Z,5.38
2017-11-23T05:35:13.478Z,5.35
2017-11-23T05:36:13.467Z,5.40
2017-11-23T05:37:13.446Z,5.40
2017-11-23T05:38:13.437Z,5.38
2017-11-23T05:39:13.428Z,5.27
2017-11-23T05:40:13.399Z,5.23
2017-11-23T05:41:13.392Z,5.40
2017-11-23T05:42:13.369Z,5.30
2017-11-23T05:43:13.352Z,5.38
2017-11-23T05:44:13.338Z,5.51
2017-11-23T05:45:13.328Z,5.44
2017-11-23T05:46:13.310Z,5.55
2017-11-23T05:47:13.288Z,5.70
2017-11-23T05:48:13.273Z,5.90
2017-11-23T05:49:13.258Z,5.95
2017-11-23T05:50:13.244Z,5.96
2017-11-23T05:51:13.240Z,6.19
2017-11-23T05:52:13.211Z,6.19
2017-11-23T05:53:13.212Z,6.24
2017-11-23T05:54:13.184Z,6.36
2017-11-23T05:55:13.173Z,6.36
2017-11-23T05:56:13.146Z,6.43
2017-11-23T05:57:13.130Z,6.45
2017-11-23T05:58:13.114Z,6.42
2017-11-23T05:59:13.098Z,6.53
2017-11-23T06:00:13.083Z,6.61
2017-11-23T06:01:13.078Z,6.71
2017-11-23T06:02:13.055Z,6.60
2017-11-23T06:03:13.040Z,6.68
2017-11-23T06:04:13.023Z,6.73
2017-11-23T06:05:13.013Z,6.65
2017-11-23T06:06:13.005Z,6.68
2017-11-23T06:07:12.982Z,6.65
2017-11-23T06:08:12.967Z,6.76
2017-11-23T06:09:12.950Z,6.75
2017-11-23T06:10:12.934Z,6.86
2017-11-23T06:11:12.915Z,6.90
2017-11-23T06:12:12.905Z,6.94
2017-11-23T06:13:12.886Z,6.97
2017-11-23T06:14:12.884Z,6.99
2017-11-23T06:15:12.857Z,6.97
2017-11-23T06:16:12.848Z,6.94
2017-11-23T06:17:12.828Z,6.93
2017-11-23T06:18:12.811Z,6.89
2017-11-23T06:19:12.803Z,6.83
2017-11-23T06:20:12.781Z,6.86
2017-11-23T06:21:12.774Z,6.78
2017-11-23T06:22:12.751Z,6.73
2017-11-23T06:23:12.744Z,6.69
2017-11-23T06:24:12.720Z,6.68
2017-11-23T06:25:12.714Z,6.60
2017-11-23T06:26:12.697Z,6.68
2017-11-23T06:27:12.683Z,6.68
2017-11-23T06:28:12.670Z,6.69
2017-11-23T06:29:12.646Z,6.87
2017-11-23T06:30:12.630Z,6.65
2017-11-23T06:31:12.624Z,6.87
2017-11-23T06:32:12.601Z,6.82
2017-11-23T06:33:12.587Z,6.86
2017-11-23T06:34:12.571Z,6.79
2017-11-23T06:35:12.565Z,6.72
2017-11-23T06:36:12.554Z,6.87
2017-11-23T06:37:12.526Z,6.99
2017-11-23T06:38:12.526Z,6.96
2017-11-23T06:39:12.498Z,6.99
2017-11-23T06:40:12.481Z,7.12
2017-11-23T06:41:12.473Z,7.18
2017-11-23T06:42:12.454Z,7.29
2017-11-23T06:43:12.439Z,7.26
2017-11-23T06:44:12.430Z,7.33
2017-11-23T06:45:12.415Z,7.41
2017-11-23T06:46:12.396Z,7.45
2017-11-23T06:47:12.380Z,7.48
2017-11-23T06:48:12.385Z,7.47
2017-11-23T06:49:12.365Z,7.57
2017-11-23T06:50:12.337Z,7.54
2017-11-23T06:51:12.324Z,7.52
2017-11-23T06:52:12.320Z,7.54
2017-11-23T06:53:12.299Z,7.57
2017-11-23T06:54:12.289Z,7.42
2017-11-23T06:55:12.272Z,7.45
2017-11-23T06:56:12.263Z,7.42
2017-11-23T06:57:12.246Z,7.44
2017-11-23T06:58:12.221Z,7.55
2017-11-23T06:59:12.210Z,7.55
2017-11-23T07:00:12.190Z,7.58
2017-11-23T07:01:12.185Z,7.57
2017-11-23T07:02:12.163Z,7.47
2017-11-23T07:03:12.148Z,7.44
2017-11-23T07:04:12.143Z,7.45
2017-11-23T07:05:12.121Z,7.54
2017-11-23T07:06:12.104Z,7.50
2017-11-23T07:07:12.091Z,7.45
2017-11-23T07:08:12.083Z,7.42
2017-11-23T07:09:12.071Z,7.37
2017-11-23T07:10:12.063Z,7.37
2017-11-23T07:11:12.049Z,7.26
2017-11-23T07:12:12.026Z,7.14
2017-11-23T07:13:12.007Z,7.11
2017-11-23T07:14:11.993Z,7.08
2017-11-23T07:15:11.989Z,6.94
2017-11-23T07:16:11.965Z,6.90
2017-11-23T07:17:11.948Z,6.79
2017-11-23T07:18:11.935Z,6.73
2017-11-23T07:19:11.919Z,6.69
2017-11-23T07:20:11.905Z,6.86
2017-11-23T07:21:11.901Z,6.71
2017-11-23T07:22:11.884Z,6.82
2017-11-23T07:23:11.871Z,6.83
2017-11-23T07:24:11.858Z,6.76
2017-11-23T07:25:11.839Z,6.68
2017-11-23T07:26:11.831Z,6.64
2017-11-23T07:27:11.820Z,6.71
2017-11-23T07:28:11.795Z,6.65
2017-11-23T07:29:11.788Z,6.61
2017-11-23T07:30:11.760Z,6.60
2017-11-23T07:31:11.744Z,6.48
2017-11-23T07:32:11.730Z,6.50
2017-11-23T07:33:11.716Z,6.48
2017-11-23T07:34:11.710Z,6.45
2017-11-23T07:35:11.691Z,6.45
2017-11-23T07:36:11.672Z,6.46
2017-11-23T07:37:11.665Z,6.50
2017-11-23T07:38:11.644Z,6.45
2017-11-23T07:39:11.635Z,6.45
2017-11-23T07:40:11.622Z,6.43
2017-11-23T07:41:11.597Z,6.28
2017-11-23T07:42:11.585Z,6.24
2017-11-23T07:43:11.578Z,6.28
2017-11-23T07:44:11.559Z,6.27
2017-11-23T07:45:11.553Z,6.27
2017-11-23T07:46:11.525Z,6.35
2017-11-23T07:47:11.510Z,6.28
2017-11-23T07:48:11.495Z,6.45
2017-11-23T07:49:11.480Z,6.43
2017-11-23T07:50:11.466Z,6.43
2017-11-23T07:51:11.450Z,6.40
2017-11-23T07:52:11.435Z,6.48
2017-11-23T07:53:11.424Z,6.45
2017-11-23T07:54:11.413Z,6.55
2017-11-23T07:55:11.393Z,6.75
2017-11-23T07:56:11.380Z,6.75
2017-11-23T07:57:11.371Z,6.72
2017-11-23T07:58:11.363Z,7.01
2017-11-23T07:59:11.337Z,7.09
2017-11-23T08:00:11.323Z,7.08
2017-11-23T08:01:11.311Z,6.99
2017-11-23T08:02:11.300Z,7.04
2017-11-23T08:03:11.297Z,6.96
2017-11-23T08:04:11.263Z,7.07
2017-11-23T08:05:11.251Z,7.00
2017-11-23T08:06:11.244Z,7.07
2017-11-23T08:07:11.218Z,7.08
2017-11-23T08:08:11.206Z,7.12
2017-11-23T08:09:11.192Z,7.11
2017-11-23T08:10:11.177Z,7.15
2017-11-23T08:11:11.169Z,7.26
2017-11-23T08:12:11.154Z,7.26
2017-11-23T08:13:11.135Z,7.24
2017-11-23T08:14:11.121Z,7.50
2017-11-23T08:15:11.116Z,7.42
2017-11-23T08:16:11.097Z,7.51
2017-11-23T08:17:11.079Z,7.58
2017-11-23T08:18:11.063Z,7.66
2017-11-23T08:19:11.051Z,7.62
2017-11-23T08:20:11.046Z,7.69
2017-11-23T08:21:11.026Z,7.79
2017-11-23T08:22:11.008Z,7.81
2017-11-23T08:23:11.004Z,7.73
2017-11-23T08:24:10.986Z,7.79
2017-11-23T08:25:10.970Z,7.91
2017-11-23T08:26:10.963Z,7.94
2017-11-23T08:27:10.954Z,7.95
2017-11-23T08:28:10.926Z,7.92
2017-11-23T08:29:10.914Z,7.94
2017-11-23T08:30:10.898Z,7.99
2017-11-23T08:31:10.884Z,8.03
2017-11-23T08:32:10.874Z,7.95
2017-11-23T08:33:10.858Z,8.06
2017-11-23T08:34:10.845Z,8.14
2017-11-23T08:35:10.840Z,8.14
2017-11-23T08:36:10.827Z,8.24
2017-11-23T08:37:10.814Z,8.29
2017-11-23T08:38:10.790Z,8.27
2017-11-23T08:39:10.782Z,8.28
2017-11-23T08:40:10.769Z,8.25
2017-11-23T08:41:10.755Z,8.24
2017-11-23T08:42:10.738Z,8.27
2017-11-23T08:43:10.731Z,8.29
2017-11-23T08:44:10.718Z,8.29
2017-11-23T08:45:10.696Z,8.28
2017-11-23T08:46:10.690Z,8.34
2017-11-23T08:47:10.669Z,8.42
2017-11-23T08:48:10.656Z,8.43
2017-11-23T08:49:10.653Z,8.49
2017-11-23T08:50:10.638Z,8.49
2017-11-23T08:51:10.625Z,8.50
2017-11-23T08:52:10.609Z,8.63
2017-11-23T08:53:10.594Z,8.68
2017-11-23T08:54:10.578Z,8.65
2017-11-23T08:55:10.566Z,8.67
2017-11-23T08:56:10.551Z,8.73
2017-11-23T08:57:10.540Z,8.71
2017-11-23T08:58:10.540Z,8.75
2017-11-23T08:59:10.513Z,8.79
2017-11-23T09:00:10.504Z,8.80
2017-11-23T09:01:10.488Z,8.78
2017-11-23T09:02:10.475Z,8.91
2017-11-23T09:03:10.472Z,8.93
2017-11-23T09:04:10.468Z,8.97
2017-11-23T09:05:10.437Z,8.98
2017-11-23T09:06:10.422Z,8.94
2017-11-23T09:07:10.412Z,9.17
2017-11-23T09:08:10.398Z,9.10
2017-11-23T09:09:10.397Z,9.22
2017-11-23T09:10:10.376Z,9.31
2017-11-23T09:11:10.360Z,9.26
2017-11-23T09:12:10.349Z,9.30
2017-11-23T09:13:10.336Z,9.30
2017-11-23T09:14:10.338Z,9.42
2017-11-23T09:15:10.311Z,9.48
2017-11-23T09:16:10.311Z,9.60
2017-11-23T09:17:10.290Z,9.63
2017-11-23T09:18:10.275Z,9.60
2017-11-23T09:19:10.260Z,9.74
2017-11-23T09:20:10.249Z,9.85
2017-11-23T09:21:10.243Z,9.88
2017-11-23T09:22:10.226Z,9.96
2017-11-23T09:23:10.217Z,9.95
2017-11-23T09:24:10.202Z,10.04
2017-11-23T09:25:10.194Z,10.06
2017-11-23T09:26:10.178Z,10.11
2017-11-23T09:27:10.166Z,10.13
2017-11-23T09:28:10.163Z,10.13
2017-11-23T09:29:10.157Z,10.20
2017-11-23T09:30:10.139Z,10.22
2017-11-23T09:31:10.117Z,10.26
2017-11-23T09:32:10.106Z,10.26
2017-11-23T09:33:10.093Z,10.31
2017-11-23T09:34:10.084Z,10.32
2017-11-23T09:35:10.071Z,10.31
2017-11-23T09:36:10.061Z,10.31
2017-11-23T09:37:10.053Z,10.31
2017-11-23T09:38:10.043Z,10.29
2017-11-23T09:39:10.036Z,10.25
2017-11-23T09:40:10.022Z,10.26
2017-11-23T09:41:10.005Z,10.29
2017-11-23T09:42:09.998Z,10.28
2017-11-23T09:43:09.987Z,10.26
2017-11-23T09:44:09.973Z,10.28
2017-11-23T09:45:09.961Z,10.38
2017-11-23T09:46:09.952Z,10.32
2017-11-23T09:47:09.937Z,10.28
2017-11-23T09:48:09.934Z,10.31
2017-11-23T09:49:09.913Z,10.26
2017-11-23T09:50:09.913Z,10.32
2017-11-23T09:51:09.901Z,10.28
2017-11-23T09:52:09.882Z,10.36
2017-11-23T09:53:09.875Z,10.29
2017-11-23T09:54:09.857Z,10.31
2017-11-23T09:55:09.858Z,10.31
2017-11-23T09:56:09.833Z,10.31
2017-11-23T09:57:09.822Z,10.28
2017-11-23T09:58:09.817Z,10.26
2017-11-23T09:59:09.802Z,10.38
2017-11-23T10:00:09.804Z,10.26
2017-11-23T10:01:09.780Z,10.28
2017-11-23T10:02:09.776Z,10.31
2017-11-23T10:03:09.765Z,10.29
2017-11-23T10:04:09.744Z,10.25
2017-11-23T10:05:09.739Z,10.26
2017-11-23T10:06:09.724Z,10.34
2017-11-23T10:07:09.712Z,10.35
2017-11-23T10:08:09.706Z,10.26
2017-11-23T10:09:09.706Z,10.25
2017-11-23T10:10:09.677Z,10.31
2017-11-23T10:11:09.669Z,10.26
2017-11-23T10:12:09.655Z,10.25
2017-11-23T10:13:09.657Z,10.20
2017-11-23T10:14:09.643Z,10.24
2017-11-23T10:15:09.624Z,10.28
2017-11-23T10:16:09.614Z,10.32
2017-11-23T10:17:09.613Z,10.31
2017-11-23T10:18:09.592Z,10.29
2017-11-23T10:19:09.591Z,10.28
2017-11-23T10:20:09.571Z,10.29
2017-11-23T10:21:09.564Z,10.31
2017-11-23T10:22:09.546Z,10.36
2017-11-23T10:23:09.543Z,10.38
2017-11-23T10:24:09.526Z,10.39
2017-11-23T10:25:09.517Z,10.39
2017-11-23T10:26:09.504Z,10.44
2017-11-23T10:27:09.498Z,10.55
2017-11-23T10:28:09.483Z,10.57
2017-11-23T10:29:09.471Z,10.57
2017-11-23T10:30:09.470Z,10.62
2017-11-23T10:31:09.455Z,10.63
2017-11-23T10:32:09.440Z,10.65
2017-11-23T10:33:09.444Z,10.57
2017-11-23T10:34:09.420Z,10.60
2017-11-23T10:35:09.407Z,10.66
2017-11-23T10:36:09.401Z,10.65
2017-11-23T10:37:09.385Z,10.68
2017-11-23T10:38:09.375Z,10.68
2017-11-23T10:39:09.363Z,10.72
2017-11-23T10:40:09.354Z,10.72
2017-11-23T10:41:09.344Z,10.68
2017-11-23T10:42:09.344Z,10.70
2017-11-23T10:43:09.332Z,10.66
2017-11-23T10:44:09.311Z,10.69
2017-11-23T10:45:09.302Z,10.81
2017-11-23T10:46:09.290Z,10.81
2017-11-23T10:47:09.282Z,10.81
2017-11-23T10:48:09.276Z,10.81
2017-11-23T10:49:09.264Z,10.68
2017-11-23T10:50:09.254Z,10.78
2017-11-23T10:51:09.247Z,10.78
2017-11-23T10:52:09.240Z,10.75
2017-11-23T10:53:09.224Z,10.70
2017-11-23T10:54:09.212Z,10.76
2017-11-23T10:55:09.193Z,10.78
2017-11-23T10:56:09.185Z,10.80
2017-11-23T10:57:09.173Z,10.86
2017-11-23T10:58:09.166Z,10.90
2017-11-23T10:59:09.150Z,10.94
2017-11-23T11:00:09.147Z,10.99
2017-11-23T11:01:09.134Z,11.01
2017-11-23T11:02:09.131Z,11.12
2017-11-23T11:03:09.110Z,11.16
2017-11-23T11:04:09.099Z,11.17
2017-11-23T11:05:09.091Z,11.12
2017-11-23T11:06:09.086Z,11.12
2017-11-23T11:07:09.078Z,11.24
2017-11-23T11:08:09.069Z,11.21
2017-11-23T11:09:09.047Z,11.23
2017-11-23T11:10:09.046Z,11.28
2017-11-23T11:11:09.032Z,11.24
2017-11-23T11:12:09.019Z,11.27
2017-11-23T11:13:09.013Z,11.30
2017-11-23T11:14:09.002Z,11.31
2017-11-23T11:15:08.984Z,11.39
2017-11-23T11:16:08.988Z,11.38
2017-11-23T11:17:08.964Z,11.42
2017-11-23T11:18:08.960Z,11.51
2017-11-23T11:19:08.951Z,11.49
2017-11-23T11:20:08.939Z,11.60
2017-11-23T11:21:08.928Z,11.46
2017-11-23T11:22:08.913Z,11.56
2017-11-23T11:23:08.907Z,11.57
2017-11-23T11:24:08.897Z,11.62
2017-11-23T11:25:08.880Z,11.64
2017-11-23T11:26:08.873Z,11.63
2017-11-23T11:27:08.870Z,11.64
2017-11-23T11:28:08.852Z,11.63
2017-11-23T11:29:08.843Z,11.64
2017-11-23T11:30:08.838Z,11.60
2017-11-23T11:31:08.819Z,11.67
2017-11-23T11:32:08.813Z,11.66
2017-11-23T11:33:08.800Z,11.74
2017-11-23T11:34:08.791Z,11.75
2017-11-23T11:35:08.789Z,11.75
2017-11-23T11:36:08.776Z,11.78
2017-11-23T11:37:08.765Z,11.78
2017-11-23T11:38:08.765Z,11.84
2017-11-23T11:39:08.746Z,11.84
2017-11-23T11:40:08.730Z,11.88
2017-11-23T11:41:08.723Z,11.87
2017-11-23T11:42:08.712Z,11.94
2017-11-23T11:43:08.701Z,11.90
2017-11-23T11:44:08.690Z,11.97
2017-11-23T11:45:08.696Z,11.98
2017-11-23T11:46:08.676Z,11.98
2017-11-23T11:47:08.669Z,11.97
2017-11-23T11:48:08.656Z,12.04
2017-11-23T11:49:08.657Z,12.00
2017-11-23T11:50:08.632Z,11.97
2017-11-23T11:51:08.628Z,12.01
2017-11-23T11:52:08.616Z,12.07
2017-11-23T11:53:08.608Z,12.01
2017-11-23T11:54:08.608Z,11.98
2017-11-23T11:55:08.585Z,12.00
2017-11-23T11:56:08.581Z,12.08
2017-11-23T11:57:08.564Z,12.12
2017-11-23T11:58:08.555Z,12.05
2017-11-23T11:59:08.560Z,12.16
2017-11-23T12:00:08.536Z,12.23
2017-11-23T12:01:08.536Z,12.21
2017-11-23T12:02:08.519Z,12.21
2017-11-23T12:03:08.506Z,12.29
2017-11-23T12:04:08.506Z,12.25
2017-11-23T12:05:08.488Z,12.33
2017-11-23T12:06:08.480Z,12.31
2017-11-23T12:07:08.487Z,12.36
2017-11-23T12:08:08.460Z,12.29
2017-11-23T12:09:08.450Z,12.31
2017-11-23T12:10:08.441Z,12.25
2017-11-23T12:11:08.429Z,12.31
2017-11-23T12:12:08.420Z,12.37
2017-11-23T12:13:08.410Z,12.36
2017-11-23T12:14:08.412Z,12.33
2017-11-23T12:15:08.392Z,12.29
2017-11-23T12:16:08.380Z,12.31
2017-11-23T12:17:08.374Z,12.30
2017-11-23T12:18:08.365Z,12.26
2017-11-23T12:19:08.353Z,12.31
2017-11-23T12:20:08.348Z,12.29
2017-11-23T12:21:08.350Z,12.26
2017-11-23T12:22:08.345Z,12.33
2017-11-23T12:23:08.320Z,12.36
2017-11-23T12:24:08.305Z,12.49
2017-11-23T12:25:08.300Z,12.48
2017-11-23T12:26:08.287Z,12.49
2017-11-23T12:27:08.276Z,12.54
2017-11-23T12:28:08.266Z,12.49
2017-11-23T12:29:08.266Z,12.56
2017-11-23T12:30:08.252Z,12.61
2017-11-23T12:31:08.237Z,12.70
2017-11-23T12:32:08.228Z,12.80
2017-11-23T12:33:08.230Z,12.84
2017-11-23T12:34:08.223Z,12.96
2017-11-23T12:35:08.208Z,13.09
2017-11-23T12:36:08.199Z,13.19
2017-11-23T12:37:08.182Z,13.24
2017-11-23T12:38:08.175Z,13.19
2017-11-23T12:39:08.173Z,13.22
2017-11-23T12:40:08.164Z,13.10
2017-11-23T12:41:08.151Z,13.17
2017-11-23T12:42:08.144Z,13.17
2017-11-23T12:43:08.133Z,13.28
2017-11-23T12:44:08.119Z,13.31
2017-11-23T12:45:08.124Z,13.27
2017-11-23T12:46:08.124Z,13.29
2017-11-23T12:47:08.102Z,13.27
2017-11-23T12:48:08.089Z,13.25
2017-11-23T12:49:08.082Z,13.29
2017-11-23T12:50:08.080Z,13.16
2017-11-23T12:51:08.064Z,13.24
2017-11-23T12:52:08.047Z,13.22
2017-11-23T12:53:08.043Z,13.28
2017-11-23T12:54:08.031Z,13.29
2017-11-23T12:55:08.021Z,13.31
2017-11-23T12:56:08.011Z,13.32
2017-11-23T12:57:08.027Z,13.32
2017-11-23T12:58:08.004Z,13.41
2017-11-23T12:59:07.986Z,13.39
2017-11-23T13:00:07.976Z,13.32
2017-11-23T13:01:07.974Z,13.39
2017-11-23T13:02:07.959Z,13.43
2017-11-23T13:03:07.963Z,13.35
2017-11-23T13:04:07.942Z,13.43
2017-11-23T13:05:07.940Z,13.32
2017-11-23T13:06:07.926Z,13.35
2017-11-23T13:07:07.921Z,13.35
2017-11-23T13:08:07.912Z,13.41
2017-11-23T13:09:07.900Z,13.46
2017-11-23T13:10:07.905Z,13.32